Time;durP1;ratioP1;P1;durP2;ratioP2;P2;SDS_P1;SDS_P2;PMS_P1;PMS_P2;Temp;Humidity;BMP_temperature;BMP_pressure;BME280_temperature;BME280_humidity;BME280_pressure;Samples;Min_cycle;Max_cycle;Signal;HPM_P1;HPM_P2
2022/06/29 00:00:18;;;;;;;1.83;0.57;;;19.60;72.90;;;;;;5071206;28;20147;-61
2022/06/29 00:02:46;;;;;;;2.45;0.70;;;19.60;73.10;;;;;;5070171;28;20442;-61
2022/06/29 00:05:15;;;;;;;3.17;0.57;;;19.60;73.30;;;;;;5071921;28;20059;-61
2022/06/29 00:07:42;;;;;;;2.17;0.70;;;19.50;73.50;;;;;;5069452;28;20029;-61
2022/06/29 00:10:09;;;;;;;3.65;0.80;;;19.50;73.50;;;;;;5070601;28;20063;-61
2022/06/29 00:12:35;;;;;;;2.55;1.10;;;19.50;73.60;;;;;;5068084;28;20070;-61
2022/06/29 00:15:02;;;;;;;1.90;0.70;;;19.40;73.70;;;;;;5068865;28;20044;-62
2022/06/29 00:17:29;;;;;;;3.45;0.90;;;19.40;73.80;;;;;;5076705;28;20024;-61
2022/06/29 00:19:55;;;;;;;3.50;0.85;;;19.30;73.90;;;;;;5077431;28;20444;-61
2022/06/29 00:22:20;;;;;;;2.03;0.90;;;19.30;74.20;;;;;;5065753;28;20028;-61
2022/06/29 00:24:46;;;;;;;3.08;0.70;;;19.20;74.30;;;;;;5070818;28;20028;-61
2022/06/29 00:27:11;;;;;;;3.20;0.80;;;19.20;74.40;;;;;;5069411;28;20031;-61
2022/06/29 00:29:37;;;;;;;2.95;0.95;;;19.20;74.60;;;;;;5069287;28;20040;-61
2022/06/29 00:32:04;;;;;;;1.83;0.60;;;19.20;74.70;;;;;;5067886;28;20068;-61
2022/06/29 00:34:30;;;;;;;1.50;0.88;;;19.20;74.70;;;;;;5069682;28;20021;-61
2022/06/29 00:36:55;;;;;;;3.28;0.77;;;19.20;74.80;;;;;;5069999;28;20039;-61
2022/06/29 00:39:21;;;;;;;2.05;1.00;;;19.20;74.80;;;;;;5070183;28;20404;-61
2022/06/29 00:41:47;;;;;;;0.90;0.70;;;19.10;74.90;;;;;;5069332;28;20043;-61
2022/06/29 00:44:14;;;;;;;0.82;0.55;;;19.10;75.10;;;;;;5068452;28;20037;-61
2022/06/29 00:46:47;;;;;;;2.55;0.85;;;19.00;75.30;;;;;;5070601;28;20141;-61
2022/06/29 00:49:15;;;;;;;3.42;1.48;;;19.00;75.40;;;;;;5070039;28;20031;-61
2022/06/29 00:51:44;;;;;;;1.60;0.90;;;19.00;75.50;;;;;;5069101;28;20472;-61
2022/06/29 00:54:11;;;;;;;;;;;19.00;75.60;;;;;;5065849;28;20205;-61
2022/06/29 00:56:36;;;;;;;1.45;0.77;;;18.90;75.60;;;;;;5070393;28;19912;-61
2022/06/29 00:59:04;;;;;;;1.20;0.60;;;18.80;76.00;;;;;;5068389;28;20048;-61
2022/06/29 01:01:30;;;;;;;1.73;0.70;;;18.80;76.10;;;;;;5068793;28;20032;-61
2022/06/29 01:03:55;;;;;;;2.58;0.80;;;18.80;76.20;;;;;;5068198;28;20499;-61
2022/06/29 01:06:21;;;;;;;3.22;0.90;;;18.80;76.40;;;;;;5069802;28;20029;-61
2022/06/29 01:08:47;;;;;;;0.90;0.63;;;18.70;76.40;;;;;;5067615;28;20464;-61
2022/06/29 01:11:13;;;;;;;1.80;0.90;;;18.70;76.60;;;;;;5068536;28;20033;-61
2022/06/29 01:13:44;;;;;;;2.42;0.77;;;18.60;76.60;;;;;;5068785;28;20490;-60
2022/06/29 01:16:10;;;;;;;2.65;0.93;;;18.60;76.80;;;;;;5065495;28;20103;-61
2022/06/29 01:18:36;;;;;;;1.80;0.88;;;18.60;77.00;;;;;;5069869;28;20135;-61
2022/06/29 01:21:08;;;;;;;1.20;0.80;;;18.60;77.20;;;;;;5068617;28;20044;-61
2022/06/29 01:23:34;;;;;;;1.20;0.70;;;18.50;77.30;;;;;;5066462;28;20021;-61
2022/06/29 01:26:04;;;;;;;1.75;0.80;;;18.50;77.40;;;;;;5067957;28;20028;-61
2022/06/29 01:28:30;;;;;;;3.22;1.05;;;18.50;77.40;;;;;;5058103;28;20047;-61
2022/06/29 01:30:55;;;;;;;1.70;0.70;;;18.50;77.40;;;;;;5067704;28;20491;-61
2022/06/29 01:33:21;;;;;;;1.00;0.80;;;18.40;77.40;;;;;;5065445;28;20020;-61
2022/06/29 01:35:46;;;;;;;1.95;0.73;;;18.40;77.40;;;;;;5068123;28;20516;-61
2022/06/29 01:38:11;;;;;;;1.45;0.70;;;18.40;77.70;;;;;;5074662;28;20016;-60
2022/06/29 01:40:37;;;;;;;1.25;0.65;;;18.30;77.90;;;;;;5078925;28;20036;-61
2022/06/29 01:43:03;;;;;;;2.90;0.80;;;18.30;78.00;;;;;;5066318;28;20047;-61
2022/06/29 01:45:29;;;;;;;1.67;0.80;;;18.20;78.10;;;;;;5068886;28;20465;-61
2022/06/29 01:47:54;;;;;;;2.25;0.85;;;18.20;78.20;;;;;;5068053;28;20012;-61
2022/06/29 01:50:20;;;;;;;1.40;0.73;;;18.20;78.30;;;;;;5065690;28;20631;-60
2022/06/29 01:52:46;;;;;;;1.50;0.85;;;18.20;78.40;;;;;;5063912;28;20081;-60
2022/06/29 01:55:11;;;;;;;2.03;1.02;;;18.10;78.70;;;;;;5069234;28;20043;-61
2022/06/29 01:57:37;;;;;;;1.33;0.70;;;18.10;78.90;;;;;;5068999;28;20028;-61
2022/06/29 02:00:03;;;;;;;1.80;0.70;;;18.10;79.10;;;;;;5068401;28;20024;-61
2022/06/29 02:02:28;;;;;;;2.35;0.85;;;18.00;79.30;;;;;;5068257;28;20032;-61
2022/06/29 02:04:54;;;;;;;2.22;0.98;;;18.00;79.60;;;;;;5066232;28;20397;-61
2022/06/29 02:07:19;;;;;;;1.42;0.80;;;18.00;79.80;;;;;;5069145;28;20043;-61
2022/06/29 02:09:45;;;;;;;1.70;0.75;;;17.90;80.00;;;;;;5067842;28;20063;-61
2022/06/29 02:12:10;;;;;;;1.35;0.88;;;17.90;80.30;;;;;;5065498;28;20057;-61
2022/06/29 02:14:36;;;;;;;1.10;0.70;;;17.80;80.40;;;;;;5066533;28;20526;-61
2022/06/29 02:17:02;;;;;;;1.33;0.75;;;17.80;80.50;;;;;;5067105;28;20039;-61
2022/06/29 02:19:27;;;;;;;1.80;0.90;;;17.70;80.60;;;;;;5067858;28;20597;-61
2022/06/29 02:21:53;;;;;;;3.28;0.90;;;17.70;80.70;;;;;;5064848;28;20036;-61
2022/06/29 02:24:18;;;;;;;2.00;1.00;;;17.70;80.80;;;;;;5069254;28;20038;-61
2022/06/29 02:26:44;;;;;;;1.60;0.85;;;17.60;80.80;;;;;;5068603;28;20055;-61
2022/06/29 02:29:09;;;;;;;1.05;0.75;;;17.60;80.90;;;;;;5067205;28;20028;-61
2022/06/29 02:37:03;;;;;;;1.20;0.80;;;17.50;81.40;;;;;;5068376;28;20035;-61
2022/06/29 02:39:29;;;;;;;1.38;0.88;;;17.50;81.60;;;;;;5067303;28;20024;-61
2022/06/29 02:41:54;;;;;;;2.17;1.17;;;17.40;81.60;;;;;;5068762;28;20396;-60
2022/06/29 02:44:20;;;;;;;3.88;1.20;;;17.40;81.60;;;;;;5065870;28;20086;-61
2022/06/29 02:46:45;;;;;;;2.42;0.90;;;17.40;81.60;;;;;;5067354;28;20028;-61
2022/06/29 02:49:11;;;;;;;0.95;0.82;;;17.40;81.60;;;;;;5066137;28;20105;-61
2022/06/29 02:51:36;;;;;;;2.40;1.20;;;17.40;81.60;;;;;;5064668;28;20040;-60
2022/06/29 02:54:02;;;;;;;1.70;1.10;;;17.40;81.50;;;;;;5067107;28;20062;-61
2022/06/29 02:56:27;;;;;;;1.95;0.93;;;17.40;81.40;;;;;;5066993;28;20024;-61
2022/06/29 02:58:53;;;;;;;2.95;1.10;;;17.30;81.50;;;;;;5064973;28;20504;-61
2022/06/29 03:01:18;;;;;;;2.28;1.20;;;17.30;81.60;;;;;;5066908;28;20035;-60
2022/06/29 03:03:45;;;;;;;2.17;1.35;;;17.30;81.80;;;;;;5066362;28;20385;-60
2022/06/29 03:06:10;;;;;;;2.13;1.20;;;17.30;82.00;;;;;;5066770;28;20099;-61
2022/06/29 03:08:36;;;;;;;1.83;1.10;;;17.20;82.00;;;;;;5064359;28;20070;-61
2022/06/29 03:11:02;;;;;;;2.42;1.10;;;17.20;82.20;;;;;;5099705;28;20029;-61
2022/06/29 03:13:27;;;;;;;2.47;1.40;;;17.10;82.30;;;;;;5066559;28;20036;-61
2022/06/29 03:15:53;;;;;;;2.08;1.23;;;17.10;83.10;;;;;;5066863;28;20078;-61
2022/06/29 03:18:18;;;;;;;1.35;1.23;;;17.10;82.70;;;;;;5062591;28;20023;-61
2022/06/29 03:20:44;;;;;;;1.63;1.38;;;17.00;82.80;;;;;;5067860;28;20024;-61
2022/06/29 03:23:09;;;;;;;1.52;1.08;;;17.00;83.10;;;;;;5066095;28;20020;-60
2022/06/29 03:25:35;;;;;;;3.15;1.10;;;17.00;83.30;;;;;;5066743;28;20365;-61
2022/06/29 03:28:01;;;;;;;1.90;1.35;;;17.00;83.50;;;;;;5066495;28;20055;-61
2022/06/29 03:30:26;;;;;;;1.75;1.08;;;17.00;83.80;;;;;;5066650;28;20491;-61
2022/06/29 03:32:52;;;;;;;1.30;0.93;;;16.90;84.30;;;;;;5065278;28;20047;-60
2022/06/29 03:35:17;;;;;;;2.70;1.45;;;16.80;84.60;;;;;;5066847;28;20046;-61
2022/06/29 03:37:43;;;;;;;1.77;1.17;;;16.80;84.90;;;;;;5065303;28;20028;-61
2022/06/29 03:40:10;;;;;;;1.77;1.27;;;16.70;85.10;;;;;;5065363;28;20025;-60
2022/06/29 03:42:36;;;;;;;2.35;1.20;;;16.70;85.40;;;;;;5064132;28;20024;-60
2022/06/29 03:45:01;;;;;;;1.70;1.40;;;16.60;85.50;;;;;;5097505;28;20401;-60
2022/06/29 03:47:27;;;;;;;1.63;1.27;;;16.60;85.60;;;;;;5066857;28;20024;-60
2022/06/29 03:49:53;;;;;;;3.00;1.23;;;16.60;85.70;;;;;;5064946;28;20081;-60
2022/06/29 03:52:18;;;;;;;2.78;1.27;;;16.60;85.80;;;;;;5065352;28;20145;-60
2022/06/29 03:54:44;;;;;;;3.78;1.60;;;16.50;85.80;;;;;;5065193;28;20028;-60
2022/06/29 03:57:09;;;;;;;2.15;1.50;;;16.50;85.90;;;;;;5066726;28;20048;-60
2022/06/29 03:59:35;;;;;;;1.95;1.50;;;16.50;85.90;;;;;;5064151;28;20037;-61
2022/06/29 04:02:00;;;;;;;1.90;1.15;;;16.50;86.00;;;;;;5065099;28;20035;-60
2022/06/29 04:04:26;;;;;;;1.33;1.23;;;16.50;86.00;;;;;;5082303;28;20035;-60
2022/06/29 04:06:52;;;;;;;2.38;1.48;;;16.60;86.20;;;;;;5066392;28;20024;-60
2022/06/29 04:09:17;;;;;;;1.95;1.48;;;16.60;86.20;;;;;;5065567;28;20385;-60
2022/06/29 04:11:49;;;;;;;1.92;1.55;;;16.60;86.30;;;;;;5066099;28;20028;-61
2022/06/29 04:14:19;;;;;;;2.72;1.42;;;16.60;86.50;;;;;;5068452;28;20047;-60
2022/06/29 04:16:45;;;;;;;3.55;1.73;;;16.70;86.60;;;;;;5069476;28;20020;-60
2022/06/29 04:19:26;;;;;;;;;;;;;;;;;;;;;
2022/06/29 04:21:53;;;;;;;2.58;1.13;;;16.70;86.90;;;;;;5070085;28;20024;-61
2022/06/29 04:24:18;;;;;;;2.88;1.58;;;16.70;87.10;;;;;;5070012;28;20033;-61
2022/06/29 04:26:44;;;;;;;3.13;1.50;;;16.70;87.30;;;;;;5068171;28;20027;-60
2022/06/29 04:29:10;;;;;;;3.40;1.80;;;16.70;87.50;;;;;;5071151;28;20047;-61
2022/06/29 04:31:36;;;;;;;3.60;2.13;;;16.70;87.70;;;;;;5069702;28;20078;-61
2022/06/29 04:34:03;;;;;;;1.98;1.73;;;16.70;87.90;;;;;;5070381;28;20025;-61
2022/06/29 04:36:29;;;;;;;2.92;1.77;;;16.80;88.20;;;;;;5066503;28;20013;-60
2022/06/29 04:38:55;;;;;;;3.33;2.55;;;16.80;88.40;;;;;;5069613;28;20392;-61
2022/06/29 04:41:22;;;;;;;3.15;2.10;;;16.80;88.70;;;;;;5068075;28;20054;-61
2022/06/29 04:43:48;;;;;;;2.88;1.95;;;16.80;89.00;;;;;;5069430;28;20480;-61
2022/06/29 04:46:20;;;;;;;2.65;1.85;;;16.80;89.20;;;;;;5069192;28;20041;-60
2022/06/29 04:48:47;;;;;;;2.10;1.90;;;16.80;89.40;;;;;;5069376;28;20028;-61
2022/06/29 04:51:13;;;;;;;2.97;2.00;;;16.80;89.50;;;;;;5068450;28;20062;-61
2022/06/29 04:53:39;;;;;;;2.45;2.25;;;16.90;89.70;;;;;;5068413;28;20064;-61
2022/06/29 04:56:05;;;;;;;2.95;2.22;;;16.90;89.80;;;;;;5068065;28;20070;-60
2022/06/29 04:58:30;;;;;;;3.25;2.28;;;16.90;90.00;;;;;;5067552;28;20041;-60
2022/06/29 05:00:56;;;;;;;2.95;2.20;;;16.90;90.00;;;;;;5069158;28;20021;-60
2022/06/29 05:03:21;;;;;;;2.38;1.98;;;17.00;90.20;;;;;;5069052;28;20027;-61
2022/06/29 05:05:47;;;;;;;2.38;2.17;;;17.00;90.20;;;;;;5068387;28;20021;-61
2022/06/29 05:08:14;;;;;;;2.83;2.60;;;17.00;90.30;;;;;;5068677;28;20036;-60
2022/06/29 05:10:40;;;;;;;2.70;2.13;;;17.00;90.40;;;;;;5064881;28;20754;-61
2022/06/29 05:13:08;;;;;;;1.73;1.50;;;17.10;90.60;;;;;;5062937;28;20112;-61
2022/06/29 05:15:34;;;;;;;3.92;2.22;;;17.20;90.70;;;;;;5059004;28;20028;-61
2022/06/29 05:17:59;;;;;;;3.17;2.15;;;17.20;90.70;;;;;;5063029;28;20021;-60
2022/06/29 05:20:25;;;;;;;3.28;1.98;;;17.20;90.70;;;;;;5060080;28;20052;-61
2022/06/29 05:22:52;;;;;;;3.17;2.05;;;17.30;90.70;;;;;;5072504;28;20074;-61
2022/06/29 05:25:23;;;;;;;2.40;1.88;;;17.30;90.70;;;;;;5069072;28;20025;-61
2022/06/29 05:27:49;;;;;;;4.60;2.00;;;17.40;90.80;;;;;;5060684;28;20496;-60
2022/06/29 05:30:15;;;;;;;2.90;2.13;;;17.40;90.90;;;;;;5054139;28;20021;-61
2022/06/29 05:32:41;;;;;;;2.55;2.30;;;17.40;90.90;;;;;;5054293;28;20029;-61
2022/06/29 05:35:07;;;;;;;3.35;2.20;;;17.50;91.10;;;;;;5054193;28;20021;-60
2022/06/29 05:37:33;;;;;;;3.03;2.70;;;17.50;91.10;;;;;;5054125;28;20048;-60
2022/06/29 05:39:59;;;;;;;3.88;2.53;;;17.50;91.30;;;;;;5069673;28;20412;-61
2022/06/29 05:42:25;;;;;;;3.97;3.13;;;17.60;91.50;;;;;;5067152;28;20411;-60
2022/06/29 05:44:50;;;;;;;2.65;2.40;;;17.60;91.70;;;;;;5061815;28;20139;-61
2022/06/29 05:47:16;;;;;;;3.55;2.38;;;17.70;91.80;;;;;;5069978;28;20036;-60
2022/06/29 05:49:50;;;;;;;3.97;2.13;;;17.70;91.80;;;;;;5058622;28;20029;-61
2022/06/29 05:52:16;;;;;;;7.85;3.08;;;17.80;91.90;;;;;;5071679;28;20033;-61
2022/06/29 05:54:41;;;;;;;4.72;2.92;;;17.80;92.00;;;;;;5057157;28;20025;-60
2022/06/29 05:57:07;;;;;;;4.93;2.88;;;17.90;92.10;;;;;;5078132;28;20101;-61
2022/06/29 05:59:33;;;;;;;3.67;2.13;;;18.00;92.00;;;;;;5082707;28;20036;-61
2022/06/29 06:01:58;;;;;;;5.63;2.17;;;18.10;91.30;;;;;;5066194;28;20031;-60
2022/06/29 06:04:25;;;;;;;4.00;2.10;;;18.20;90.60;;;;;;5061447;28;20024;-61
2022/06/29 06:09:50;;;;;;;5.75;2.15;;;18.30;90.40;;;;;;5061441;28;20126;-61
2022/06/29 06:12:16;;;;;;;6.22;3.00;;;18.40;90.00;;;;;;5068396;28;20577;-60
2022/06/29 06:14:42;;;;;;;8.00;2.63;;;18.50;89.60;;;;;;5066041;28;20025;-60
2022/06/29 06:17:07;;;;;;;6.57;2.78;;;18.50;88.90;;;;;;5067526;28;20046;-61
2022/06/29 06:19:33;;;;;;;6.57;2.75;;;18.60;89.00;;;;;;5065094;28;20047;-61
2022/06/29 06:21:58;;;;;;;5.10;2.55;;;18.70;88.60;;;;;;5056744;28;20400;-60
2022/06/29 06:24:24;;;;;;;8.57;2.83;;;18.80;88.20;;;;;;5061141;28;20074;-60
2022/06/29 06:26:49;;;;;;;6.35;2.58;;;18.80;88.00;;;;;;5069514;28;20631;-60
2022/06/29 06:29:15;;;;;;;7.85;2.70;;;18.90;88.10;;;;;;5067268;28;20499;-60
2022/06/29 06:31:40;;;;;;;5.70;2.50;;;19.00;88.20;;;;;;5069928;28;20484;-60
2022/06/29 06:34:06;;;;;;;5.47;2.42;;;19.00;87.90;;;;;;5071811;28;20028;-60
2022/06/29 06:36:32;;;;;;;5.63;2.30;;;19.10;87.70;;;;;;5062281;28;20024;-60
2022/06/29 06:38:57;;;;;;;7.38;2.67;;;19.20;87.40;;;;;;5062530;28;20024;-61
2022/06/29 06:41:23;;;;;;;5.07;2.60;;;19.30;87.30;;;;;;5063425;28;20033;-60
2022/06/29 06:43:54;;;;;;;4.88;2.40;;;19.40;86.30;;;;;;5068624;28;20570;-60
2022/06/29 06:46:20;;;;;;;5.50;2.42;;;19.50;85.50;;;;;;5061512;28;20025;-60
2022/06/29 06:48:46;;;;;;;6.43;2.50;;;19.60;85.60;;;;;;5070433;28;20036;-60
2022/06/29 06:51:12;;;;;;;5.75;2.90;;;19.70;85.80;;;;;;5062480;28;20102;-61
2022/06/29 06:53:38;;;;;;;7.43;2.90;;;19.80;84.70;;;;;;5065456;28;20048;-60
2022/06/29 06:56:04;;;;;;;3.55;1.92;;;19.90;82.60;;;;;;5058799;28;20485;-60
2022/06/29 06:58:35;;;;;;;5.32;2.55;;;20.00;82.00;;;;;;5059361;28;21253;-60
2022/06/29 07:01:02;;;;;;;6.10;2.80;;;20.10;81.90;;;;;;5063099;28;20027;-60
2022/06/29 07:03:36;;;;;;;4.25;1.92;;;20.20;82.60;;;;;;5056821;28;20048;-61
2022/06/29 07:06:04;;;;;;;4.90;2.20;;;20.30;81.40;;;;;;5054384;28;20384;-60
2022/06/29 07:08:31;;;;;;;5.45;2.60;;;20.40;81.60;;;;;;5057263;28;20017;-60
2022/06/29 07:10:58;;;;;;;5.50;2.53;;;20.40;81.90;;;;;;5057524;28;20021;-61
2022/06/29 07:13:49;;;;;;;5.05;2.35;;;20.60;80.60;;;;;;5062122;28;20033;-60
2022/06/29 07:16:15;;;;;;;4.15;2.30;;;20.70;79.60;;;;;;5072110;28;20550;-61
2022/06/29 07:18:41;;;;;;;4.68;1.83;;;20.70;78.30;;;;;;5058929;28;20052;-60
2022/06/29 07:21:06;;;;;;;3.20;2.28;;;20.80;78.60;;;;;;5060799;28;20031;-60
2022/06/29 07:23:32;;;;;;;3.60;2.40;;;20.90;78.90;;;;;;5064007;28;20032;-60
2022/06/29 07:25:58;;;;;;;5.07;2.13;;;21.00;78.10;;;;;;5070222;28;20059;-61
2022/06/29 07:28:23;;;;;;;3.95;2.45;;;21.10;77.70;;;;;;5069518;28;20469;-60
2022/06/29 07:30:51;;;;;;;5.20;2.42;;;21.20;77.50;;;;;;5052369;28;20033;-60
2022/06/29 07:33:35;;;;;;;3.53;2.20;;;21.30;76.70;;;;;;5064287;28;20108;-61
2022/06/29 07:36:01;;;;;;;7.45;2.97;;;21.40;77.30;;;;;;5053240;28;20461;-61
2022/06/29 07:38:26;;;;;;;3.67;2.00;;;21.50;76.00;;;;;;5067585;28;20543;-61
2022/06/29 07:40:52;;;;;;;4.45;1.85;;;21.60;76.50;;;;;;5055703;28;20017;-61
2022/06/29 07:43:17;;;;;;;4.55;2.40;;;21.70;77.20;;;;;;5052115;28;20033;-61
2022/06/29 07:45:43;;;;;;;4.32;2.22;;;21.80;76.00;;;;;;5060655;28;20024;-60
2022/06/29 07:48:09;;;;;;;3.70;1.95;;;21.90;74.70;;;;;;5054677;28;20021;-61
2022/06/29 07:50:35;;;;;;;5.13;1.85;;;22.00;74.80;;;;;;5071703;28;20032;-61
2022/06/29 07:53:00;;;;;;;4.85;2.40;;;22.10;74.00;;;;;;5056320;28;20033;-61
2022/06/29 07:55:26;;;;;;;3.05;2.25;;;22.20;74.70;;;;;;5057105;28;20087;-60
2022/06/29 07:57:52;;;;;;;4.45;2.08;;;22.20;74.50;;;;;;5056661;28;20056;-61
2022/06/29 08:00:18;;;;;;;4.97;2.15;;;22.30;74.90;;;;;;5057146;28;20017;-61
2022/06/29 08:02:44;;;;;;;4.13;2.88;;;22.40;75.40;;;;;;5056502;28;20561;-61
2022/06/29 08:05:09;;;;;;;7.32;2.88;;;22.50;74.10;;;;;;5057618;28;20070;-60
2022/06/29 08:07:35;;;;;;;4.90;2.75;;;22.50;74.00;;;;;;5068555;28;20104;-61
2022/06/29 08:10:03;;;;;;;3.90;1.83;;;22.50;74.70;;;;;;5058911;28;20511;-61
2022/06/29 08:12:29;;;;;;;4.68;2.70;;;22.60;73.00;;;;;;5056382;28;20554;-61
2022/06/29 08:14:54;;;;;;;6.53;2.42;;;22.60;72.30;;;;;;5070024;28;20100;-61
2022/06/29 08:17:20;;;;;;;7.28;1.77;;;22.70;72.70;;;;;;5063557;28;20155;-61
2022/06/29 08:19:45;;;;;;;3.90;1.88;;;22.70;73.70;;;;;;5068364;28;20040;-61
2022/06/29 08:22:12;;;;;;;4.25;2.08;;;22.80;73.40;;;;;;5060985;28;20013;-61
2022/06/29 08:24:37;;;;;;;4.15;1.80;;;22.90;72.40;;;;;;5061363;28;20104;-61
2022/06/29 08:27:03;;;;;;;4.05;2.50;;;23.00;71.90;;;;;;5057023;28;20123;-62
2022/06/29 08:29:29;;;;;;;5.70;2.40;;;23.00;73.20;;;;;;5065734;28;20495;-61
2022/06/29 08:31:54;;;;;;;4.07;1.63;;;23.10;73.20;;;;;;5065333;28;20111;-61
2022/06/29 08:34:33;;;;;;;3.10;2.05;;;23.20;71.00;;;;;;5063037;28;20534;-61
2022/06/29 08:36:59;;;;;;;4.13;2.30;;;23.30;69.50;;;;;;5062049;28;20021;-61
2022/06/29 08:39:25;;;;;;;4.63;2.25;;;23.30;69.00;;;;;;5061154;28;20408;-61
2022/06/29 08:41:54;;;;;;;3.45;2.00;;;23.40;69.20;;;;;;5059441;28;20043;-61
2022/06/29 08:44:21;;;;;;;;;;;23.50;72.20;;;;;;5063452;28;20029;-61
2022/06/29 08:46:46;;;;;;;5.20;2.08;;;23.50;72.10;;;;;;5061419;28;19911;-61
2022/06/29 08:49:12;;;;;;;4.78;2.83;;;23.60;72.30;;;;;;5072175;28;20025;-61
2022/06/29 08:51:39;;;;;;;4.35;2.40;;;23.80;70.20;;;;;;5080353;28;20029;-61
2022/06/29 08:54:07;;;;;;;3.67;1.55;;;23.90;68.50;;;;;;5065795;28;20032;-61
2022/06/29 08:56:34;;;;;;;4.67;2.50;;;24.10;68.60;;;;;;5061192;28;20384;-61
2022/06/29 08:59:02;;;;;;;4.97;2.67;;;24.20;69.50;;;;;;5062740;28;20052;-61
2022/06/29 09:01:29;;;;;;;7.85;2.08;;;24.30;67.60;;;;;;5062460;28;20059;-61
2022/06/29 09:03:55;;;;;;;5.53;2.03;;;24.20;68.00;;;;;;5060911;28;20056;-61
2022/06/29 09:06:20;;;;;;;3.55;1.98;;;24.30;68.40;;;;;;5062201;28;20060;-61
2022/06/29 09:08:46;;;;;;;3.95;2.00;;;24.40;68.40;;;;;;5070500;28;20469;-61
2022/06/29 09:11:28;;;;;;;3.38;1.73;;;24.40;68.90;;;;;;5070363;28;20063;-60
2022/06/29 09:14:16;;;;;;;3.25;2.03;;;24.50;67.40;;;;;;5071476;28;20434;-61
2022/06/29 09:16:58;;;;;;;4.15;1.95;;;24.80;68.00;;;;;;5060383;28;20082;-61
2022/06/29 09:19:29;;;;;;;4.20;1.90;;;25.00;67.90;;;;;;5058534;28;20024;-61
2022/06/29 09:21:57;;;;;;;2.95;2.17;;;25.00;67.20;;;;;;5063313;28;20076;-61
2022/06/29 09:24:54;;;;;;;5.93;2.30;;;25.10;65.50;;;;;;5099115;28;20136;-62
2022/06/29 09:27:23;;;;;;;3.47;1.83;;;25.10;65.60;;;;;;5054168;28;20025;-61
2022/06/29 09:29:49;;;;;;;4.43;2.00;;;25.10;65.60;;;;;;5069161;28;20028;-61
2022/06/29 09:32:18;;;;;;;3.50;1.88;;;25.20;66.00;;;;;;5062813;28;20036;-61
2022/06/29 09:34:47;;;;;;;3.75;1.20;;;25.40;67.00;;;;;;5073272;28;20024;-61
2022/06/29 09:37:14;;;;;;;4.97;2.22;;;25.40;64.10;;;;;;5062326;28;20031;-62
2022/06/29 09:42:47;;;;;;;4.18;1.05;;;25.70;63.10;;;;;;5057933;28;20449;-62
2022/06/29 09:45:13;;;;;;;4.22;1.45;;;26.00;64.30;;;;;;5064495;28;20036;-62
2022/06/29 09:47:56;;;;;;;;;;;;;;;;;;;;;
2022/06/29 09:50:21;;;;;;;5.57;1.45;;;26.50;61.60;;;;;;5069573;28;20028;-62
2022/06/29 09:52:49;;;;;;;3.53;1.20;;;26.40;61.30;;;;;;5063295;28;20104;-62
2022/06/29 09:55:15;;;;;;;2.42;1.60;;;26.40;61.50;;;;;;5064076;28;20459;-62
2022/06/29 09:57:45;;;;;;;2.72;1.38;;;26.40;59.70;;;;;;5066343;28;20044;-61
2022/06/29 10:02:55;;;;;;;3.38;1.05;;;26.40;59.50;;;;;;5067429;28;20074;-62
2022/06/29 10:05:22;;;;;;;4.78;1.55;;;26.30;59.30;;;;;;5067633;28;20021;-62
2022/06/29 10:07:51;;;;;;;2.20;1.38;;;26.30;59.90;;;;;;5066778;28;20027;-61
2022/06/29 10:10:19;;;;;;;1.92;0.90;;;26.30;58.70;;;;;;5066704;28;20431;-62
2022/06/29 10:16:20;;;;;;;1.95;0.80;;;26.20;57.10;;;;;;5068726;28;20036;-62
2022/06/29 10:19:21;;;;;;;3.10;1.20;;;26.20;56.50;;;;;;5066363;28;20023;-62
2022/06/29 10:21:46;;;;;;;1.50;0.90;;;26.20;55.90;;;;;;5067339;28;20021;-62
2022/06/29 10:24:15;;;;;;;2.55;1.25;;;26.20;55.60;;;;;;5067766;28;20020;-62
2022/06/29 10:26:51;;;;;;;3.70;1.05;;;26.30;56.30;;;;;;5066953;28;20029;-62
2022/06/29 10:29:23;;;;;;;2.13;1.00;;;26.40;55.90;;;;;;5066598;28;20032;-62
2022/06/29 10:31:51;;;;;;;3.80;1.20;;;26.40;56.00;;;;;;5067381;28;20028;-62
2022/06/29 10:34:38;;;;;;;3.10;1.13;;;26.40;54.70;;;;;;5065486;28;20024;-62
2022/06/29 10:37:21;;;;;;;2.53;1.02;;;26.40;55.00;;;;;;5069909;28;20029;-61
2022/06/29 10:45:34;;;;;;;2.70;1.45;;;26.30;56.30;;;;;;5060567;28;20066;-62
2022/06/29 10:48:01;;;;;;;3.30;0.93;;;26.40;56.90;;;;;;5070674;28;20025;-62
2022/06/29 10:50:28;;;;;;;4.15;0.80;;;26.50;56.00;;;;;;5070889;28;20024;-62
2022/06/29 10:52:54;;;;;;;2.83;1.05;;;26.70;55.80;;;;;;5068920;28;20023;-62
2022/06/29 10:55:21;;;;;;;3.88;0.85;;;26.80;52.80;;;;;;5070964;28;20020;-62
2022/06/29 10:57:47;;;;;;;2.33;1.10;;;26.80;53.10;;;;;;5065178;28;20036;-62
2022/06/29 11:00:18;;;;;;;3.85;1.27;;;26.90;53.20;;;;;;5059561;28;20082;-62
2022/06/29 11:02:44;;;;;;;2.90;1.00;;;26.90;52.30;;;;;;5057964;28;20033;-62
2022/06/29 11:05:10;;;;;;;1.45;0.80;;;26.90;51.50;;;;;;5062478;28;20025;-62
2022/06/29 11:13:11;;;;;;;1.77;0.88;;;27.00;52.00;;;;;;5062420;28;20081;-62
2022/06/29 11:15:41;;;;;;;1.50;0.88;;;27.10;51.50;;;;;;5057655;28;20481;-62
2022/06/29 11:18:17;;;;;;;1.58;0.88;;;27.20;51.00;;;;;;5070524;28;20092;-62
2022/06/29 11:20:50;;;;;;;2.08;0.80;;;27.20;51.70;;;;;;5059376;28;20079;-62
2022/06/29 11:23:20;;;;;;;3.88;1.10;;;27.30;51.50;;;;;;5068388;28;20078;-62
2022/06/29 11:25:48;;;;;;;1.67;0.88;;;27.30;52.70;;;;;;5066221;28;20029;-62
2022/06/29 11:28:17;;;;;;;2.17;0.98;;;27.40;53.60;;;;;;5065267;28;20036;-62
2022/06/29 11:31:04;;;;;;;2.83;1.27;;;27.50;54.40;;;;;;5068671;28;20115;-62
2022/06/29 11:33:36;;;;;;;1.92;0.70;;;27.70;52.10;;;;;;5068368;28;20075;-62
2022/06/29 11:36:06;;;;;;;2.45;1.00;;;27.70;51.70;;;;;;5062604;28;20029;-62
2022/06/29 11:38:31;;;;;;;3.42;0.70;;;27.90;52.50;;;;;;5081714;28;20480;-62
2022/06/29 11:40:57;;;;;;;1.05;0.68;;;27.80;50.20;;;;;;5073977;28;20090;-62
2022/06/29 11:43:23;;;;;;;1.90;0.80;;;27.80;50.80;;;;;;5070136;28;20033;-62
2022/06/29 11:45:54;;;;;;;1.40;0.70;;;27.70;49.20;;;;;;5068989;28;20408;-62
2022/06/29 11:48:27;;;;;;;2.13;0.80;;;27.70;49.90;;;;;;5070034;28;20042;-62
2022/06/29 11:50:56;;;;;;;1.65;0.70;;;27.80;48.40;;;;;;5072192;28;20036;-62
2022/06/29 11:53:43;;;;;;;2.03;0.73;;;27.80;49.10;;;;;;5075621;28;20021;-62
2022/06/29 11:56:14;;;;;;;1.08;0.57;;;28.10;48.80;;;;;;5074399;28;20102;-62
2022/06/29 11:58:42;;;;;;;2.40;0.60;;;28.20;48.50;;;;;;5073389;28;20056;-62
2022/06/29 12:01:13;;;;;;;1.70;1.05;;;28.30;47.90;;;;;;5074627;28;20380;-62
2022/06/29 12:03:46;;;;;;;3.40;0.60;;;28.40;48.50;;;;;;5070764;28;20529;-62
2022/06/29 12:06:13;;;;;;;1.63;0.60;;;28.40;47.30;;;;;;5061962;28;20029;-62
2022/06/29 12:08:39;;;;;;;1.92;0.57;;;28.60;47.20;;;;;;5060115;28;20029;-62
2022/06/29 12:11:04;;;;;;;2.15;0.70;;;28.60;48.70;;;;;;5055440;28;20111;-62
2022/06/29 12:13:30;;;;;;;1.80;0.70;;;28.50;47.50;;;;;;5059527;28;20465;-62
2022/06/29 12:15:55;;;;;;;1.80;0.80;;;28.50;47.00;;;;;;5065624;28;20036;-62
2022/06/29 12:18:39;;;;;;;1.88;0.73;;;28.60;47.50;;;;;;5071781;28;20021;-62
2022/06/29 12:21:04;;;;;;;0.80;0.50;;;28.70;47.20;;;;;;5070444;28;20039;-62
2022/06/29 12:23:31;;;;;;;1.58;0.80;;;28.70;45.90;;;;;;5058881;28;20099;-62
2022/06/29 12:25:57;;;;;;;1.58;0.50;;;28.70;46.90;;;;;;5065923;28;20055;-62
2022/06/29 12:28:34;;;;;;;1.35;0.52;;;28.80;46.00;;;;;;5074444;28;20019;-62
2022/06/29 12:30:59;;;;;;;1.45;0.55;;;28.80;45.90;;;;;;5074547;28;20024;-63
2022/06/29 12:33:25;;;;;;;2.33;1.15;;;29.00;46.50;;;;;;5067447;28;20036;-62
2022/06/29 12:35:52;;;;;;;4.43;0.80;;;29.30;46.70;;;;;;5063646;28;20024;-62
2022/06/29 12:38:17;;;;;;;1.08;0.70;;;29.40;46.60;;;;;;5059308;28;20021;-62
2022/06/29 12:40:43;;;;;;;2.65;0.85;;;29.50;46.40;;;;;;5063722;28;20025;-62
2022/06/29 12:43:08;;;;;;;1.60;0.75;;;29.40;45.90;;;;;;5059040;28;20036;-62
2022/06/29 12:45:34;;;;;;;1.83;0.82;;;29.40;47.10;;;;;;5069068;28;20040;-62
2022/06/29 12:48:01;;;;;;;1.50;0.65;;;29.50;46.90;;;;;;5058451;28;20533;-62
2022/06/29 12:50:27;;;;;;;1.75;0.68;;;29.50;46.40;;;;;;5081807;28;20028;-62
2022/06/29 12:52:52;;;;;;;1.73;0.65;;;29.70;46.10;;;;;;5062270;28;20025;-62
2022/06/29 12:55:20;;;;;;;1.83;0.80;;;29.80;46.00;;;;;;5056373;28;20495;-62
2022/06/29 12:57:46;;;;;;;2.72;0.80;;;29.90;46.80;;;;;;5068885;28;20021;-62
2022/06/29 13:00:13;;;;;;;1.98;0.75;;;30.00;45.80;;;;;;5056442;28;20453;-62
2022/06/29 13:02:40;;;;;;;1.15;0.77;;;30.10;47.30;;;;;;5059734;28;20024;-62
2022/06/29 13:05:07;;;;;;;5.00;1.08;;;30.20;44.60;;;;;;5072947;28;20028;-62
2022/06/29 13:07:38;;;;;;;3.20;0.70;;;30.20;46.90;;;;;;5060815;28;20559;-62
2022/06/29 13:10:07;;;;;;;1.35;0.60;;;30.20;44.90;;;;;;5065219;28;20039;-62
2022/06/29 13:12:34;;;;;;;1.77;0.90;;;30.20;45.40;;;;;;5071888;28;20029;-62
2022/06/29 13:15:00;;;;;;;1.38;0.60;;;30.20;44.70;;;;;;5067893;28;20087;-62
2022/06/29 13:17:26;;;;;;;1.30;0.60;;;30.20;45.70;;;;;;5067259;28;20016;-62
2022/06/29 13:19:51;;;;;;;2.42;0.80;;;30.30;45.60;;;;;;5069902;28;20021;-63